Time;durP1;ratioP1;P1;durP2;ratioP2;P2;SDS_P1;SDS_P2;PMS_P1;PMS_P2;Temp;Humidity;BMP_temperature;BMP_pressure;BME280_temperature;BME280_humidity;BME280_pressure;Samples;Min_cycle;Max_cycle;Signal;HPM_P1;HPM_P2
2021/10/15 00:00:18;;;;;;;16.65;12.60;;;13.10;58.20;;;;;;5014761;28;20085;-69
2021/10/15 00:02:44;;;;;;;17.60;11.25;;;13.10;59.20;;;;;;5004867;28;20062;-69
2021/10/15 00:05:10;;;;;;;18.45;11.88;;;13.10;59.60;;;;;;5022100;28;20121;-69
2021/10/15 00:07:35;;;;;;;17.42;11.30;;;13.10;59.00;;;;;;5016307;28;20029;-70
2021/10/15 00:10:02;;;;;;;13.02;11.20;;;13.10;59.20;;;;;;5031191;28;20448;-69
2021/10/15 00:12:28;;;;;;;16.02;12.32;;;13.00;58.50;;;;;;5032531;28;20026;-69
2021/10/15 00:14:54;;;;;;;16.25;12.45;;;13.00;58.50;;;;;;5031478;28;20133;-69
2021/10/15 00:17:19;;;;;;;18.00;12.85;;;13.00;59.00;;;;;;5031942;28;20046;-70
2021/10/15 00:19:45;;;;;;;16.58;11.93;;;13.00;59.60;;;;;;5031241;28;20079;-69
2021/10/15 00:22:11;;;;;;;15.65;11.70;;;12.90;58.90;;;;;;5032521;28;20045;-70
2021/10/15 00:24:37;;;;;;;19.02;12.40;;;12.90;59.00;;;;;;5031717;28;20037;-69
2021/10/15 00:27:03;;;;;;;14.15;12.38;;;12.90;58.60;;;;;;5032610;28;20048;-69
2021/10/15 00:29:28;;;;;;;13.18;11.82;;;13.00;58.70;;;;;;5031210;28;20033;-69
2021/10/15 00:31:54;;;;;;;17.00;11.82;;;13.00;57.90;;;;;;5032628;28;20056;-70
2021/10/15 00:34:20;;;;;;;17.65;12.07;;;12.90;58.10;;;;;;5031551;28;20049;-70
2021/10/15 00:36:45;;;;;;;13.77;11.90;;;12.90;58.10;;;;;;5032659;28;20033;-70
2021/10/15 00:39:11;;;;;;;19.40;11.98;;;13.00;58.20;;;;;;5032823;28;20037;-70
2021/10/15 00:41:37;;;;;;;16.48;12.77;;;12.90;58.00;;;;;;5033792;28;20091;-69
2021/10/15 00:44:07;;;;;;;17.08;12.23;;;12.90;58.20;;;;;;5034468;28;20025;-69
2021/10/15 00:46:34;;;;;;;14.32;12.00;;;12.90;58.10;;;;;;5035051;28;20033;-70
2021/10/15 00:49:02;;;;;;;14.88;12.27;;;12.90;58.20;;;;;;5034749;28;20108;-70
2021/10/15 00:51:29;;;;;;;16.38;12.00;;;12.90;58.40;;;;;;5035423;28;20041;-70
2021/10/15 00:53:54;;;;;;;16.63;12.18;;;12.80;58.50;;;;;;5021125;28;20411;-69
2021/10/15 00:56:20;;;;;;;18.38;12.45;;;12.80;58.80;;;;;;5017194;28;20048;-69
2021/10/15 00:58:46;;;;;;;17.20;12.07;;;12.70;58.60;;;;;;5034679;28;20038;-69
2021/10/15 01:01:11;;;;;;;15.90;11.38;;;12.80;58.50;;;;;;5035194;28;20115;-70
2021/10/15 01:03:37;;;;;;;14.50;11.95;;;12.70;58.80;;;;;;5033099;28;20486;-70
2021/10/15 01:06:03;;;;;;;13.23;11.93;;;12.70;58.60;;;;;;5015931;28;20065;-70
2021/10/15 01:08:29;;;;;;;16.13;12.15;;;12.80;58.70;;;;;;5032428;28;20034;-70
2021/10/15 01:10:55;;;;;;;14.85;11.98;;;12.70;58.80;;;;;;5034270;28;20037;-69
2021/10/15 01:13:21;;;;;;;19.42;13.57;;;12.70;59.20;;;;;;5034475;28;20053;-70
2021/10/15 01:15:46;;;;;;;16.17;11.80;;;12.70;59.00;;;;;;5035233;28;20073;-69
2021/10/15 01:18:13;;;;;;;19.15;13.60;;;12.60;59.20;;;;;;5032166;28;20076;-69
2021/10/15 01:20:42;;;;;;;17.15;12.93;;;12.70;59.20;;;;;;5034024;28;20045;-69
2021/10/15 01:23:08;;;;;;;15.20;12.05;;;12.70;59.60;;;;;;5034296;28;20033;-69
2021/10/15 01:25:35;;;;;;;15.95;11.45;;;12.60;59.70;;;;;;5034780;28;20137;-69
2021/10/15 01:28:01;;;;;;;15.82;12.30;;;12.60;59.70;;;;;;5034390;28;20393;-69
2021/10/15 01:30:27;;;;;;;16.20;13.50;;;12.60;59.70;;;;;;5033522;28;20111;-69
2021/10/15 01:32:53;;;;;;;17.20;12.82;;;12.60;59.90;;;;;;5034583;28;20612;-69
2021/10/15 01:35:18;;;;;;;14.60;11.88;;;12.60;59.80;;;;;;5032829;28;20049;-69
2021/10/15 01:37:44;;;;;;;18.88;13.20;;;12.60;59.50;;;;;;5032867;28;20425;-69
2021/10/15 01:40:10;;;;;;;19.55;12.50;;;12.60;59.20;;;;;;5033637;28;20040;-69
2021/10/15 01:42:55;;;;;;;17.08;12.48;;;12.50;59.00;;;;;;5034557;28;20083;-69
2021/10/15 01:45:22;;;;;;;15.77;11.88;;;12.50;58.50;;;;;;5031814;28;20049;-69
2021/10/15 01:47:47;;;;;;;17.80;12.82;;;12.50;58.50;;;;;;5033523;28;20398;-69
2021/10/15 01:50:13;;;;;;;16.73;12.63;;;12.50;58.40;;;;;;5034028;28;20045;-69
2021/10/15 01:52:39;;;;;;;16.77;12.80;;;12.50;58.40;;;;;;5033614;28;20467;-69
2021/10/15 01:55:07;;;;;;;15.13;12.63;;;12.50;58.20;;;;;;5033014;28;20049;-69
2021/10/15 01:57:32;;;;;;;19.65;13.68;;;12.50;58.40;;;;;;5028122;28;20041;-69
2021/10/15 01:59:58;;;;;;;19.60;13.38;;;12.50;58.60;;;;;;5030731;28;20526;-69
2021/10/15 02:02:23;;;;;;;16.88;13.30;;;12.50;58.20;;;;;;5026194;28;20045;-69
2021/10/15 02:04:49;;;;;;;16.88;12.90;;;12.40;58.20;;;;;;5028773;28;20124;-69
2021/10/15 02:07:14;;;;;;;17.92;13.63;;;12.50;58.40;;;;;;5032425;28;20041;-69
2021/10/15 02:09:40;;;;;;;18.23;13.27;;;12.40;58.20;;;;;;5032735;28;20045;-69
2021/10/15 02:12:06;;;;;;;15.20;13.55;;;12.50;58.50;;;;;;5033178;28;20073;-69
2021/10/15 02:14:32;;;;;;;16.40;14.25;;;12.40;58.70;;;;;;5014993;28;20053;-69
2021/10/15 02:16:57;;;;;;;17.75;13.80;;;12.40;58.60;;;;;;5033385;28;20059;-69
2021/10/15 02:19:23;;;;;;;18.17;13.90;;;12.30;58.70;;;;;;5032260;28;20048;-69
2021/10/15 02:21:49;;;;;;;20.05;14.55;;;12.40;58.60;;;;;;5033273;28;20506;-69
2021/10/15 02:24:14;;;;;;;17.73;14.45;;;12.40;58.70;;;;;;5033021;28;20497;-69
2021/10/15 02:26:40;;;;;;;17.70;13.70;;;12.40;58.60;;;;;;5033108;28;20029;-69
2021/10/15 02:29:05;;;;;;;15.55;13.73;;;12.40;58.50;;;;;;5032096;28;20474;-69
2021/10/15 02:31:31;;;;;;;14.18;12.73;;;12.40;58.50;;;;;;5032407;28;20402;-69
2021/10/15 02:33:57;;;;;;;19.73;13.23;;;12.40;58.90;;;;;;5030645;28;20132;-69
2021/10/15 02:36:22;;;;;;;15.73;13.40;;;12.30;59.10;;;;;;5033701;28;20061;-69
2021/10/15 02:38:48;;;;;;;21.25;13.65;;;12.30;59.00;;;;;;5013519;28;20041;-69
2021/10/15 02:41:14;;;;;;;20.58;12.57;;;12.30;59.30;;;;;;5033054;28;20042;-69
2021/10/15 02:43:39;;;;;;;18.52;12.93;;;12.30;59.40;;;;;;5032455;28;20495;-70
2021/10/15 02:46:05;;;;;;;16.80;12.95;;;12.20;59.60;;;;;;5032360;28;20029;-69
2021/10/15 02:48:31;;;;;;;13.82;11.80;;;12.20;60.40;;;;;;5032089;28;20479;-69
2021/10/15 02:50:57;;;;;;;16.48;12.55;;;12.20;60.50;;;;;;5032740;28;20458;-69
2021/10/15 02:53:22;;;;;;;14.88;12.45;;;12.20;60.60;;;;;;5033007;28;20100;-69
2021/10/15 02:55:48;;;;;;;16.10;12.40;;;12.30;60.90;;;;;;5032108;28;20399;-69
2021/10/15 02:58:14;;;;;;;17.73;13.38;;;12.20;60.70;;;;;;5032717;28;20483;-69
2021/10/15 03:00:39;;;;;;;18.95;12.05;;;12.20;60.90;;;;;;5032257;28;20041;-69
2021/10/15 03:03:05;;;;;;;17.55;12.80;;;12.20;61.40;;;;;;5031180;28;20037;-69
2021/10/15 03:05:30;;;;;;;16.42;12.13;;;12.20;61.20;;;;;;5032126;28;20056;-69
2021/10/15 03:07:56;;;;;;;18.13;13.00;;;12.20;61.30;;;;;;5032475;28;20056;-69
2021/10/15 03:10:22;;;;;;;14.18;12.68;;;12.10;61.60;;;;;;5031011;28;20560;-69
2021/10/15 03:12:47;;;;;;;14.68;12.68;;;12.10;61.40;;;;;;5031814;28;20037;-69
2021/10/15 03:15:13;;;;;;;18.42;12.15;;;12.20;61.60;;;;;;5030307;28;20079;-62
2021/10/15 03:17:38;;;;;;;15.18;11.95;;;12.10;61.60;;;;;;5031363;28;20048;-70
2021/10/15 03:20:05;;;;;;;19.67;13.35;;;12.10;61.90;;;;;;5031074;28;20112;-69
2021/10/15 03:22:30;;;;;;;14.63;12.38;;;12.00;61.60;;;;;;5031474;28;20451;-69
2021/10/15 03:24:56;;;;;;;18.90;12.88;;;12.10;61.70;;;;;;5031317;28;20037;-69
2021/10/15 03:27:22;;;;;;;18.42;12.80;;;12.10;61.80;;;;;;5032800;28;20037;-69
2021/10/15 03:29:47;;;;;;;15.63;12.77;;;12.10;62.00;;;;;;5031224;28;20049;-69
2021/10/15 03:32:13;;;;;;;13.38;11.95;;;12.10;62.00;;;;;;5031748;28;20041;-70
2021/10/15 03:34:38;;;;;;;13.70;11.55;;;12.00;62.10;;;;;;5025982;28;20046;-69
2021/10/15 03:37:04;;;;;;;18.80;12.80;;;12.00;62.20;;;;;;5014695;28;20034;-69
2021/10/15 03:39:29;;;;;;;14.90;12.45;;;12.00;62.20;;;;;;5029509;28;20394;-70
2021/10/15 03:41:55;;;;;;;13.98;12.52;;;12.00;62.30;;;;;;5031798;28;20052;-69
2021/10/15 03:44:21;;;;;;;14.52;12.35;;;12.10;62.40;;;;;;5030502;28;20033;-70
2021/10/15 03:46:47;;;;;;;14.15;11.55;;;11.90;62.70;;;;;;5032852;28;20037;-69
2021/10/15 03:49:13;;;;;;;13.65;11.82;;;12.00;63.00;;;;;;5031606;28;20111;-69
2021/10/15 03:51:39;;;;;;;14.35;11.57;;;12.00;63.10;;;;;;5031775;28;20470;-69
2021/10/15 03:54:04;;;;;;;12.80;10.57;;;12.00;63.10;;;;;;5031185;28;20052;-69
2021/10/15 03:56:30;;;;;;;17.38;12.32;;;11.90;63.30;;;;;;5032073;28;20040;-69
2021/10/15 03:58:56;;;;;;;13.82;10.88;;;11.90;63.30;;;;;;5013600;28;20394;-69
2021/10/15 04:01:21;;;;;;;14.32;11.43;;;11.90;63.30;;;;;;5031570;28;20033;-69
2021/10/15 04:03:47;;;;;;;14.13;10.82;;;11.90;63.30;;;;;;5031123;28;20551;-69
2021/10/15 04:06:12;;;;;;;11.65;9.80;;;11.90;63.50;;;;;;5032257;28;20038;-69
2021/10/15 04:08:38;;;;;;;16.17;11.20;;;11.90;63.60;;;;;;5030563;28;20044;-69
2021/10/15 04:11:03;;;;;;;12.77;11.32;;;11.90;63.40;;;;;;5032028;28;20045;-69
2021/10/15 04:13:29;;;;;;;16.40;12.38;;;11.90;63.60;;;;;;5030607;28;20037;-70
2021/10/15 04:15:56;;;;;;;12.82;11.13;;;11.90;63.50;;;;;;5025300;28;20510;-70
2021/10/15 04:18:22;;;;;;;16.33;11.85;;;11.80;63.30;;;;;;5034976;28;20025;-70
2021/10/15 04:20:47;;;;;;;13.95;10.55;;;11.80;63.40;;;;;;5035769;28;20107;-70
2021/10/15 04:23:13;;;;;;;14.73;11.57;;;11.90;63.60;;;;;;5035031;28;20045;-70
2021/10/15 04:25:39;;;;;;;14.82;10.88;;;11.90;64.00;;;;;;5035851;28;20044;-70
2021/10/15 04:28:04;;;;;;;16.55;12.32;;;11.80;63.60;;;;;;5035570;28;20064;-70
2021/10/15 04:30:30;;;;;;;13.68;11.23;;;11.80;64.00;;;;;;5034657;28;20029;-69
2021/10/15 04:32:56;;;;;;;12.98;10.35;;;11.70;64.00;;;;;;5020528;28;20084;-69
2021/10/15 04:35:21;;;;;;;16.38;11.80;;;11.80;63.90;;;;;;5033166;28;20037;-69
2021/10/15 04:37:47;;;;;;;13.43;10.82;;;11.80;64.00;;;;;;5035447;28;20030;-70
2021/10/15 04:40:12;;;;;;;15.13;10.90;;;11.80;64.10;;;;;;5034572;28;20415;-70
2021/10/15 04:42:39;;;;;;;13.18;11.18;;;11.80;64.30;;;;;;5035752;28;20055;-69
2021/10/15 04:45:06;;;;;;;13.63;10.98;;;11.80;64.40;;;;;;5034270;28;20460;-70
2021/10/15 04:47:32;;;;;;;14.98;11.63;;;11.80;64.20;;;;;;5035229;28;20442;-69
2021/10/15 04:49:57;;;;;;;13.10;10.82;;;11.80;64.30;;;;;;5016262;28;20037;-69
2021/10/15 04:52:23;;;;;;;14.52;10.75;;;11.70;64.40;;;;;;5034708;28;20437;-69
2021/10/15 04:54:48;;;;;;;12.90;10.40;;;11.70;64.50;;;;;;5034635;28;20057;-69
2021/10/15 04:57:14;;;;;;;15.00;10.45;;;11.80;64.30;;;;;;5034595;28;20083;-69
2021/10/15 04:59:39;;;;;;;15.07;11.13;;;11.70;64.60;;;;;;5034541;28;20514;-69
2021/10/15 05:02:05;;;;;;;16.00;10.63;;;11.70;64.70;;;;;;5034356;28;20047;-70
2021/10/15 05:04:30;;;;;;;12.77;10.10;;;11.70;64.90;;;;;;5034503;28;20037;-70
2021/10/15 05:06:58;;;;;;;13.20;10.75;;;11.70;65.40;;;;;;5035247;28;20040;-70
2021/10/15 05:09:33;;;;;;;14.82;10.45;;;11.70;64.80;;;;;;5034366;28;20122;-70
2021/10/15 05:12:03;;;;;;;14.18;11.48;;;11.70;65.10;;;;;;5034061;28;20103;-70
2021/10/15 05:14:31;;;;;;;14.13;11.18;;;11.70;65.50;;;;;;5031076;28;20124;-69
2021/10/15 05:16:58;;;;;;;14.45;10.77;;;11.70;65.10;;;;;;5033583;28;20479;-69
2021/10/15 05:19:24;;;;;;;16.08;11.15;;;11.70;64.90;;;;;;5032455;28;20112;-69
2021/10/15 05:21:50;;;;;;;13.27;10.00;;;11.70;64.90;;;;;;5034255;28;20100;-69
2021/10/15 05:24:16;;;;;;;12.88;10.88;;;11.70;65.00;;;;;;5013884;28;20040;-69
2021/10/15 05:26:41;;;;;;;12.23;9.88;;;11.70;65.30;;;;;;5015124;28;20045;-70
2021/10/15 05:29:07;;;;;;;14.02;10.60;;;11.70;65.50;;;;;;5033758;28;20034;-70
2021/10/15 05:31:32;;;;;;;16.80;10.63;;;11.70;65.60;;;;;;5032979;28;20175;-69
2021/10/15 05:33:58;;;;;;;18.20;10.82;;;11.70;65.50;;;;;;5033185;28;20041;-69
2021/10/15 05:36:24;;;;;;;17.00;11.20;;;11.70;65.50;;;;;;5034280;28;20485;-69
2021/10/15 05:38:49;;;;;;;11.77;9.45;;;11.70;65.40;;;;;;5034203;28;20056;-69
2021/10/15 05:41:15;;;;;;;15.73;10.57;;;11.70;65.70;;;;;;5031749;28;20033;-69
2021/10/15 05:43:40;;;;;;;20.02;10.73;;;11.70;65.70;;;;;;5033218;28;20499;-69
2021/10/15 05:46:06;;;;;;;12.13;10.65;;;11.60;65.80;;;;;;5030533;28;20034;-69
2021/10/15 05:48:31;;;;;;;13.50;10.77;;;11.60;66.00;;;;;;5014292;28;20472;-69
2021/10/15 05:50:57;;;;;;;14.40;10.65;;;11.60;65.90;;;;;;5033700;28;20025;-69
2021/10/15 05:53:24;;;;;;;14.77;11.18;;;11.60;66.00;;;;;;5016197;28;20072;-69
2021/10/15 05:56:21;;;;;;;15.45;9.90;;;11.60;65.90;;;;;;5033099;28;20172;-70
2021/10/15 05:58:51;;;;;;;14.73;10.18;;;11.70;65.80;;;;;;5033164;28;20030;-70
2021/10/15 06:01:24;;;;;;;11.68;9.88;;;11.60;65.90;;;;;;5015392;28;20398;-69
2021/10/15 06:14:44;;;;;;;23.95;11.10;;;11.70;65.80;;;;;;5032030;28;20223;-69
2021/10/15 06:17:16;;;;;;;13.75;10.18;;;11.70;66.00;;;;;;5026013;28;20076;-69
2021/10/15 06:20:02;;;;;;;16.48;10.93;;;11.70;65.60;;;;;;5033072;28;20077;-69
2021/10/15 06:22:28;;;;;;;14.63;10.40;;;11.70;65.80;;;;;;5031857;28;20125;-69
2021/10/15 06:24:55;;;;;;;18.95;11.65;;;11.70;65.50;;;;;;5031399;28;20029;-69
2021/10/15 06:27:23;;;;;;;19.52;11.73;;;11.80;65.50;;;;;;5033256;28;20084;-69
2021/10/15 06:29:50;;;;;;;16.67;10.57;;;11.80;65.80;;;;;;5032753;28;20037;-70
2021/10/15 06:32:20;;;;;;;21.27;12.15;;;11.80;65.50;;;;;;5025507;28;20397;-70
2021/10/15 06:34:46;;;;;;;18.77;11.65;;;11.90;65.20;;;;;;5027512;28;20089;-70
2021/10/15 06:37:11;;;;;;;13.90;11.50;;;11.90;65.00;;;;;;5036718;28;20519;-70
2021/10/15 06:39:37;;;;;;;18.50;11.73;;;12.00;65.00;;;;;;5042459;28;20049;-70
2021/10/15 06:42:03;;;;;;;17.63;12.32;;;12.00;65.00;;;;;;5033946;28;20144;-70
2021/10/15 06:44:29;;;;;;;16.23;11.77;;;12.00;64.70;;;;;;5033726;28;20053;-69
2021/10/15 06:46:54;;;;;;;19.35;11.60;;;12.00;64.80;;;;;;5031490;28;20040;-69
2021/10/15 06:49:20;;;;;;;18.02;12.05;;;12.00;64.90;;;;;;5034005;28;20041;-70
2021/10/15 06:51:46;;;;;;;20.85;12.68;;;12.00;65.00;;;;;;5041593;28;20045;-70
2021/10/15 06:54:13;;;;;;;20.20;12.20;;;12.00;64.70;;;;;;5036636;28;20060;-69
2021/10/15 06:56:39;;;;;;;16.30;12.48;;;12.00;64.60;;;;;;5035411;28;20041;-70
2021/10/15 06:59:04;;;;;;;18.77;13.80;;;12.10;64.50;;;;;;5040196;28;20128;-70
2021/10/15 07:01:31;;;;;;;23.23;13.27;;;12.10;64.00;;;;;;5037120;28;20056;-70
2021/10/15 07:03:57;;;;;;;16.38;12.65;;;12.10;64.00;;;;;;5033637;28;20040;-70
2021/10/15 07:06:23;;;;;;;17.23;13.15;;;12.20;63.90;;;;;;5029820;28;20040;-70
2021/10/15 07:08:49;;;;;;;18.95;13.98;;;12.20;63.90;;;;;;5016032;28;20410;-70
2021/10/15 07:11:15;;;;;;;19.63;13.38;;;12.20;63.50;;;;;;5033647;28;20573;-70
2021/10/15 07:13:41;;;;;;;15.00;13.18;;;12.20;63.60;;;;;;5038848;28;20089;-70
2021/10/15 07:16:08;;;;;;;19.95;14.70;;;12.30;63.60;;;;;;5033926;28;20045;-68
2021/10/15 07:18:33;;;;;;;18.52;13.13;;;12.30;63.00;;;;;;5032985;28;20128;-64
2021/10/15 07:20:59;;;;;;;19.35;13.30;;;12.20;62.20;;;;;;5031769;28;20448;-63
2021/10/15 07:23:24;;;;;;;18.63;13.65;;;12.30;62.00;;;;;;5033507;28;20037;-61
2021/10/15 07:25:50;;;;;;;18.08;13.30;;;12.30;62.10;;;;;;5031457;28;20041;-72
2021/10/15 07:28:17;;;;;;;22.63;14.77;;;12.30;62.30;;;;;;5034094;28;20044;-61
2021/10/15 07:30:44;;;;;;;18.02;14.02;;;12.40;61.70;;;;;;5030371;28;20479;-61
2021/10/15 07:33:10;;;;;;;19.08;14.60;;;12.50;62.00;;;;;;5032322;28;20045;-64
2021/10/15 07:35:36;;;;;;;18.15;13.45;;;12.50;61.70;;;;;;5031536;28;20052;-65
2021/10/15 07:38:02;;;;;;;19.83;13.45;;;12.60;61.30;;;;;;5032291;28;20046;-64
2021/10/15 07:40:27;;;;;;;19.02;13.88;;;12.60;61.20;;;;;;5031920;28;20064;-64
2021/10/15 07:42:53;;;;;;;19.85;14.20;;;12.70;61.30;;;;;;5034921;28;20399;-70
2021/10/15 07:45:20;;;;;;;20.73;15.65;;;12.60;60.60;;;;;;5030607;28;20060;-75
2021/10/15 07:47:46;;;;;;;20.08;14.43;;;12.50;61.00;;;;;;5031961;28;20159;-77
2021/10/15 07:50:12;;;;;;;19.50;14.10;;;12.60;61.10;;;;;;5035225;28;20475;-79
2021/10/15 07:52:41;;;;;;;22.85;15.13;;;12.60;60.40;;;;;;5040992;28;20398;-66
2021/10/15 07:55:08;;;;;;;20.00;14.52;;;12.70;60.40;;;;;;5043820;28;20044;-66
2021/10/15 07:57:34;;;;;;;100.82;47.95;;;12.70;60.00;;;;;;5044677;28;20128;-62
2021/10/15 07:59:59;;;;;;;36.25;21.33;;;12.70;60.40;;;;;;5044390;28;20125;-72
2021/10/15 08:02:26;;;;;;;21.38;15.43;;;12.80;60.40;;;;;;5035999;28;20053;-70
2021/10/15 08:04:52;;;;;;;20.70;15.40;;;12.80;60.00;;;;;;5035419;28;20065;-63
2021/10/15 08:07:17;;;;;;;20.20;14.93;;;12.80;59.80;;;;;;5036274;28;20076;-67
2021/10/15 08:09:43;;;;;;;25.33;15.50;;;12.90;59.80;;;;;;5044807;28;20060;-72
2021/10/15 08:12:08;;;;;;;20.88;14.40;;;12.90;59.40;;;;;;5033345;28;20045;-65
2021/10/15 08:14:35;;;;;;;21.88;14.95;;;12.90;59.40;;;;;;5034908;28;20053;-61
2021/10/15 08:17:01;;;;;;;21.25;15.02;;;12.90;59.70;;;;;;5037740;28;20060;-60
2021/10/15 08:19:26;;;;;;;23.08;15.48;;;13.00;59.40;;;;;;5045042;28;20041;-65
2021/10/15 08:21:52;;;;;;;23.33;15.85;;;13.00;59.20;;;;;;5047191;28;20037;-62
2021/10/15 08:24:18;;;;;;;21.70;14.63;;;13.00;59.10;;;;;;5039943;28;20037;-70
2021/10/15 08:26:43;;;;;;;21.00;15.48;;;13.10;58.90;;;;;;5032469;28;20530;-63
2021/10/15 08:29:09;;;;;;;22.50;15.43;;;13.00;58.90;;;;;;5033105;28;20040;-65
2021/10/15 08:31:35;;;;;;;21.58;16.95;;;13.10;58.70;;;;;;5031441;28;20125;-65
2021/10/15 08:34:02;;;;;;;19.75;15.80;;;13.10;58.90;;;;;;5010028;28;20033;-65
2021/10/15 08:36:28;;;;;;;23.13;16.58;;;13.10;59.10;;;;;;5039458;28;20037;-65
2021/10/15 08:38:53;;;;;;;21.92;16.10;;;13.20;58.80;;;;;;5039534;28;20049;-65
2021/10/15 08:41:23;;;;;;;30.60;21.02;;;13.20;58.70;;;;;;5042719;28;20052;-65
2021/10/15 08:43:52;;;;;;;22.58;16.55;;;13.20;57.90;;;;;;5036959;28;20034;-66
2021/10/15 08:46:18;;;;;;;22.95;16.38;;;13.30;57.90;;;;;;5033948;28;20029;-65
2021/10/15 08:48:44;;;;;;;23.67;18.15;;;13.30;57.70;;;;;;5035657;28;20059;-65
2021/10/15 08:51:09;;;;;;;21.20;16.58;;;13.30;58.20;;;;;;5019997;28;20029;-65
2021/10/15 08:53:48;;;;;;;26.75;17.45;;;13.30;57.90;;;;;;5044718;28;20558;-65
2021/10/15 08:56:15;;;;;;;20.80;17.20;;;13.40;59.10;;;;;;5016377;28;20092;-65
2021/10/15 08:58:47;;;;;;;23.58;17.67;;;13.30;58.20;;;;;;5028633;28;20058;-65
2021/10/15 09:01:13;;;;;;;23.40;17.30;;;13.40;57.70;;;;;;5034908;28;20035;-66
2021/10/15 09:03:39;;;;;;;24.30;16.77;;;13.30;57.50;;;;;;5040435;28;20041;-65
2021/10/15 09:06:07;;;;;;;25.77;17.55;;;13.40;57.40;;;;;;5036998;28;20037;-65
2021/10/15 09:08:55;;;;;;;23.60;17.13;;;13.40;57.20;;;;;;5035293;28;20407;-65
2021/10/15 09:11:31;;;;;;;23.98;17.15;;;13.50;56.20;;;;;;5034247;28;20064;-66
2021/10/15 09:14:22;;;;;;;22.63;17.45;;;13.50;57.00;;;;;;5035401;28;20072;-65
2021/10/15 09:17:16;;;;;;;22.83;17.60;;;13.60;57.60;;;;;;5038382;28;20399;-66
2021/10/15 09:19:50;;;;;;;27.50;17.55;;;13.60;56.10;;;;;;5036926;28;20037;-66
2021/10/15 09:22:18;;;;;;;24.87;17.87;;;13.60;56.00;;;;;;5042601;28;20037;-65
2021/10/15 09:25:09;;;;;;;23.40;17.60;;;13.70;56.80;;;;;;5034890;28;20327;-66
2021/10/15 09:27:38;;;;;;;27.45;18.08;;;13.80;61.20;;;;;;5034803;28;20443;-66
2021/10/15 09:30:12;;;;;;;24.30;18.25;;;13.80;64.00;;;;;;5049706;28;20033;-65
2021/10/15 09:32:44;;;;;;;29.95;18.95;;;13.80;63.20;;;;;;5038066;28;20041;-66
2021/10/15 09:35:14;;;;;;;28.90;18.88;;;13.90;66.30;;;;;;5049128;28;20479;-65
2021/10/15 09:37:41;;;;;;;25.75;17.77;;;14.00;68.30;;;;;;5032931;28;20068;-65
2021/10/15 09:40:18;;;;;;;23.00;18.05;;;14.00;62.00;;;;;;5016819;28;20376;-66
2021/10/15 09:42:48;;;;;;;25.70;19.50;;;14.00;61.80;;;;;;5033418;28;20037;-66
2021/10/15 09:45:18;;;;;;;26.90;19.45;;;14.00;64.80;;;;;;5035759;28;20799;-66
2021/10/15 09:47:48;;;;;;;28.17;19.48;;;14.10;66.80;;;;;;5014934;28;20418;-66
2021/10/15 09:50:16;;;;;;;25.63;18.92;;;14.10;66.00;;;;;;5050065;28;20048;-66
2021/10/15 09:52:46;;;;;;;29.45;20.83;;;14.20;65.20;;;;;;5031665;28;20041;-65
2021/10/15 09:55:20;;;;;;;27.70;20.33;;;14.30;66.70;;;;;;5032100;28;20045;-66
2021/10/15 09:57:49;;;;;;;;;;;14.30;64.40;;;;;;5031751;28;20133;-66
2021/10/15 10:00:21;;;;;;;28.60;19.00;;;14.30;65.50;;;;;;5014247;28;19911;-64
2021/10/15 10:02:48;;;;;;;24.33;18.63;;;14.30;62.70;;;;;;5030028;28;20046;-64
2021/10/15 10:06:09;;;;;;;28.10;19.20;;;14.40;62.60;;;;;;5037277;28;20487;-64
2021/10/15 10:08:34;;;;;;;26.45;18.80;;;14.50;62.10;;;;;;5032847;28;20119;-64
2021/10/15 10:11:01;;;;;;;21.65;16.85;;;14.50;61.90;;;;;;5052267;28;20155;-65
2021/10/15 10:13:26;;;;;;;24.05;19.08;;;14.60;61.30;;;;;;5033149;28;20479;-64
2021/10/15 10:15:52;;;;;;;23.70;19.10;;;14.70;63.70;;;;;;5033338;28;20045;-64
2021/10/15 10:18:32;;;;;;;24.70;18.48;;;14.60;66.00;;;;;;5024115;28;20099;-64
2021/10/15 10:21:07;;;;;;;28.25;19.85;;;14.70;66.10;;;;;;5025769;28;20041;-65
2021/10/15 10:23:45;;;;;;;25.17;19.77;;;;;;;;;;5031152;28;20041;-64
2021/10/15 10:26:13;;;;;;;26.48;19.50;;;14.90;54.80;;;;;;5031844;28;20138;-64
2021/10/15 10:28:39;;;;;;;23.27;19.00;;;14.90;56.20;;;;;;5032745;28;20041;-65
2021/10/15 10:31:21;;;;;;;27.52;19.23;;;15.00;56.70;;;;;;5031827;28;22772;-64
2021/10/15 10:33:58;;;;;;;28.50;20.88;;;15.00;58.10;;;;;;5043340;28;20045;-65
2021/10/15 10:36:24;;;;;;;27.65;19.13;;;15.10;60.50;;;;;;5035031;28;20055;-64
2021/10/15 10:38:51;;;;;;;27.45;19.08;;;14.90;55.30;;;;;;5031672;28;20091;-65
2021/10/15 10:41:24;;;;;;;23.05;19.38;;;15.10;50.90;;;;;;5033769;28;20084;-65
2021/10/15 10:43:50;;;;;;;25.67;20.52;;;15.20;50.50;;;;;;5014977;28;20091;-64
2021/10/15 10:46:23;;;;;;;29.70;20.65;;;15.10;51.00;;;;;;5050473;28;20036;-64
2021/10/15 10:48:49;;;;;;;28.92;20.27;;;15.10;51.50;;;;;;5031131;28;20036;-64
2021/10/15 10:51:17;;;;;;;25.67;20.52;;;15.20;50.20;;;;;;5036405;28;20036;-64
2021/10/15 10:54:11;;;;;;;30.15;21.83;;;15.30;51.40;;;;;;5033181;28;20041;-64
2021/10/15 10:56:41;;;;;;;25.88;20.52;;;15.30;50.90;;;;;;5021790;28;20068;-65
2021/10/15 10:59:19;;;;;;;26.02;20.27;;;15.30;53.00;;;;;;5025350;28;20479;-64
2021/10/15 11:01:47;;;;;;;27.52;20.85;;;15.50;52.40;;;;;;5033679;28;20502;-64
2021/10/15 11:04:37;;;;;;;21.92;19.15;;;15.40;58.80;;;;;;5042819;28;20072;-65
2021/10/15 11:07:07;;;;;;;23.90;20.58;;;15.60;54.50;;;;;;5038815;28;20124;-65
2021/10/15 11:09:42;;;;;;;28.67;21.88;;;15.60;50.60;;;;;;5032603;28;20067;-65
2021/10/15 11:15:31;;;;;;;27.10;21.77;;;;;;;;;;5031744;28;20040;-64
2021/10/15 11:17:58;;;;;;;31.70;23.92;;;15.70;64.70;;;;;;5039473;28;20049;-65
2021/10/15 11:20:37;;;;;;;29.08;22.88;;;;;;;;;;5032096;28;20032;-64
2021/10/15 11:23:06;;;;;;;31.25;22.77;;;16.00;56.90;;;;;;5031265;28;20040;-64
2021/10/15 11:25:40;;;;;;;31.52;23.85;;;16.00;55.10;;;;;;5029677;28;20068;-64
2021/10/15 11:28:12;;;;;;;25.70;22.67;;;16.10;54.50;;;;;;5031855;28;20061;-65
2021/10/15 11:30:44;;;;;;;26.75;22.58;;;16.10;52.40;;;;;;5044356;28;20073;-65
2021/10/15 11:33:11;;;;;;;26.63;22.30;;;;;;;;;;5042290;28;20029;-65
2021/10/15 11:35:40;;;;;;;30.05;24.52;;;16.30;56.90;;;;;;5037355;28;20498;-65
2021/10/15 11:38:07;;;;;;;30.05;23.98;;;16.10;53.90;;;;;;5030970;28;20037;-65
2021/10/15 11:40:46;;;;;;;32.00;24.75;;;16.30;53.80;;;;;;5031912;28;20521;-65
2021/10/15 11:43:11;;;;;;;30.15;24.85;;;16.20;52.90;;;;;;5029420;28;20503;-65
2021/10/15 11:45:44;;;;;;;28.95;24.05;;;16.40;54.50;;;;;;5032741;28;20057;-65
2021/10/15 11:48:12;;;;;;;29.60;23.33;;;16.40;56.40;;;;;;5020656;28;20030;-64
2021/10/15 11:50:38;;;;;;;29.50;23.60;;;;;;;;;;5014216;28;20073;-65
2021/10/15 11:53:05;;;;;;;28.50;23.17;;;16.50;62.90;;;;;;5038593;28;20041;-65
2021/10/15 11:55:36;;;;;;;32.55;23.20;;;16.60;56.60;;;;;;5025261;28;20565;-65
2021/10/15 11:58:19;;;;;;;29.08;23.40;;;16.60;55.80;;;;;;5023183;28;20040;-65
2021/10/15 12:00:54;;;;;;;26.77;23.27;;;16.70;55.00;;;;;;5028492;28;20045;-65
2021/10/15 12:03:25;;;;;;;29.70;24.10;;;16.90;54.20;;;;;;5027993;28;20038;-65
2021/10/15 12:05:51;;;;;;;29.45;24.80;;;17.00;55.40;;;;;;5032283;28;20033;-65
2021/10/15 12:08:17;;;;;;;29.90;23.27;;;;;;;;;;5027369;28;20116;-65
2021/10/15 12:10:44;;;;;;;32.97;23.20;;;17.00;32.80;;;;;;5026878;28;20080;-65
2021/10/15 12:13:09;;;;;;;28.20;22.90;;;17.10;43.60;;;;;;5033764;28;20044;-65
2021/10/15 12:15:35;;;;;;;28.63;22.65;;;17.20;47.90;;;;;;5049620;28;20053;-64
2021/10/15 12:18:05;;;;;;;27.50;23.40;;;;;;;;;;5030952;28;20061;-65
2021/10/15 12:20:31;;;;;;;34.10;24.17;;;17.30;31.60;;;;;;5031976;28;20108;-65
2021/10/15 12:23:05;;;;;;;29.50;22.83;;;17.50;47.50;;;;;;5025844;28;20120;-65
2021/10/15 12:25:31;;;;;;;36.95;24.33;;;;;;;;;;5017781;28;20442;-65
2021/10/15 12:27:57;;;;;;;35.80;24.05;;;17.50;43.50;;;;;;5031175;28;20430;-65
2021/10/15 12:30:25;;;;;;;29.23;23.63;;;17.60;33.30;;;;;;5016931;28;20037;-65
2021/10/15 12:32:52;;;;;;;31.15;23.75;;;17.80;30.90;;;;;;5036531;28;20069;-65
2021/10/15 12:35:19;;;;;;;31.52;24.20;;;17.70;31.70;;;;;;5031085;28;20072;-65
2021/10/15 12:37:51;;;;;;;28.58;23.83;;;17.60;31.70;;;;;;5046354;28;20036;-64
2021/10/15 12:40:24;;;;;;;30.45;23.27;;;17.70;31.20;;;;;;5054932;28;20422;-64
2021/10/15 12:43:14;;;;;;;28.17;23.67;;;17.70;32.80;;;;;;5027381;28;20036;-64
2021/10/15 12:45:48;;;;;;;32.45;23.50;;;17.80;31.10;;;;;;5042425;28;20033;-65
2021/10/15 12:48:28;;;;;;;29.85;22.60;;;17.80;30.00;;;;;;5023538;28;20559;-65